Monday, November 19, 2018, 2:34 AM EST
Back to Local

KMRB, Martinsburg Eastern Wv Reg

Location: Martinsburg, WV, United States Lat: 39.4
Local Time: 2:34 AM EST ( 7:34 GMT) Lon: -77.983
Time Zone: US/Eastern Elev: 557 ft

Show me the last for .
Show Decoded

2018-11-19 01:53 METAR KMRB 190653Z AUTO 00000KT 3SM BR CLR 02/02 A3010 RMK AO2 SLP196 T00220017
                 =
2018-11-19 01:35 METAR KMRB 190635Z AUTO 01003KT 4SM BR CLR 02/02 A3010 RMK AO2 T00220017 =
2018-11-19 01:04 METAR KMRB 190604Z AUTO 00000KT 2 1/2SM BR CLR 02/02 A3011 RMK AO2 T00170017 =
2018-11-19 00:53 METAR KMRB 190553Z AUTO 00000KT 3SM BR CLR 02/02 A3012 RMK AO2 SLP201 T00220017
                 10033 20011 56013 =
2018-11-18 23:53 METAR KMRB 190453Z AUTO 29003KT 5SM BR CLR 03/02 A3013 RMK AO2 SLP204 T00280022
                 400831028 =
2018-11-18 22:53 METAR KMRB 190353Z AUTO 00000KT 3SM BR SCT065 02/01 A3014 RMK AO2 SLP210
                 T00170011 =
2018-11-18 22:43 METAR KMRB 190343Z AUTO 00000KT 3SM BR BKN065 02/01 A3014 RMK AO2 T00170011 =
2018-11-18 22:14 METAR KMRB 190314Z AUTO 00000KT 2 1/2SM BR SCT060 02/02 A3015 RMK AO2 T00170017
                 =
2018-11-18 21:53 METAR KMRB 190253Z AUTO 00000KT 4SM BR SCT060 02/02 A3016 RMK AO2 SLP216
                 T00220017 56004 =
2018-11-18 20:53 METAR KMRB 190153Z AUTO 00000KT 4SM BR CLR 02/01 A3016 RMK AO2 SLP217 T00170011
                 =
2018-11-18 19:53 METAR KMRB 190053Z AUTO 00000KT 6SM BR CLR 03/02 A3016 RMK AO2 SLP219 T00280017
                 =
2018-11-18 18:53 METAR KMRB 182353Z AUTO 00000KT 6SM BR CLR 03/02 A3017 RMK AO2 SLP221 T00330022
                 10083 20028 58008 =
2018-11-18 17:53 METAR KMRB 182253Z AUTO 00000KT 7SM CLR 04/03 A3018 RMK AO2 SLP225 T00440028 =
2018-11-18 16:53 METAR KMRB 182153Z AUTO 00000KT 8SM CLR 06/03 A3019 RMK AO2 SLP229 T00560033 =
2018-11-18 15:53 METAR KMRB 182053Z AUTO 16005KT 9SM CLR 07/03 A3019 RMK AO2 SLP228 T00720033
                 56016 =
2018-11-18 14:53 METAR KMRB 181953Z 16007KT 9SM CLR 08/03 A3020 RMK AO2 SLP230 T00780033 =
2018-11-18 13:53 METAR KMRB 181853Z 15006KT 8SM CLR 07/03 A3022 RMK AO2 SLP236 T00720028 =
2018-11-18 12:53 METAR KMRB 181753Z 14007KT 9SM CLR 07/03 A3024 RMK AO2 SLP245 T00720028 10078
                 21017 58027 =
2018-11-18 11:53 METAR KMRB 181653Z 14006KT 9SM CLR 07/01 A3027 RMK AO2 SLP255 T00670011 =
2018-11-18 10:53 METAR KMRB 181553Z 00000KT 8SM CLR 06/01 A3030 RMK AO2 SLP266 T00560011 =
2018-11-18 09:53 METAR KMRB 181453Z 00000KT 5SM HZ FEW034 BKN100 03/01 A3032 RMK AO2 SLP273
                 T00330006 58002 =
2018-11-18 08:53 METAR KMRB 181353Z 00000KT 4SM BR CLR 01/M01 A3033 RMK AO2 SLP276 T00111006 =
2018-11-18 07:53 METAR KMRB 181253Z 00000KT 3SM BR OVC110 M01/M02 A3033 RMK AO2 SLP275 T10061017
                 =
2018-11-18 06:53 METAR KMRB 181153Z AUTO 00000KT 5SM BR BKN100 M02/M02 A3033 RMK AO2 SLP276 I6000
                 T10171022 11006 21028 51006 =
2018-11-18 05:53 METAR KMRB 181053Z AUTO 00000KT 3SM BR FEW038 M02/M03 A3032 RMK AO2 SLP274
                 T10221028 =
2018-11-18 04:53 METAR KMRB 180953Z AUTO 00000KT 3SM BR CLR M03/M03 A3032 RMK AO2 SLP273 I1000
                 T10281028 =
2018-11-18 03:53 METAR KMRB 180853Z AUTO 00000KT 5SM BR CLR M02/M02 A3031 RMK AO2 SLP269
                 T10171022 56001 =

Support USWX by starting your Amazon purchase here.